Portada
METAR-TAF:

METAR-TAF

Aeroports :

Batum, Geòrgia

latitud: 41-36-37N, longitud: 041-35-58E, altitud: 32 m

Observació

L'informe es va fer fa 18 minuts, a les 15:30 UTC
Vent 9 kt del Est/Sud-Est
Temperatura 8°C
Humitat 66%
Pressió 1016 hPa
Visibilitat 10 km o més
sense núvols per sota de 1500 mi sense presència de cumulonimbus.

METAR: UGSB 101530Z 12009KT CAVOK 08/02 Q1016 NOSIG

Hora: 19:48 (15:48 UTC)

Pronòstic

L'informe es va fer fa 4 hores i 48 minuts, a les 11:00 UTC
Pronòstic vàlid del 10 a les 12 UTC al 11 a les 12 UTC
Vent 7 kt del Nord
Visibilitat 10 km o més
sense núvols per sota de 1500 mi sense presència de cumulonimbus.
Evolucionant progressivament
l' 10 a les 16 UTC al 10 a les 18 UTC
Evolucionant progressivament
l' 11 a les 08 UTC al 11 a les 10 UTC
Vent 7 kt del Nord

TAF: UGSB 101100Z 1012/1112 35007KT CAVOK TX14/1012Z TN06/1103Z BECMG 1016/1018 12016K BECMG 1108/1110 01007KT

Observacions i pronòstics meteorològics de més de 4000 aeroports (METAR i TAF).

Les estacions disponibles són els punts grocs i vermells al mapa.

Posi el ratolí al punt desitjat per veure el nom de l'estació.

Feu clic per veure les observacions i els pronòstics meteorològics.

Per canviar el mapa: feu clic els botons verds amb una creu de color negre per apropar; al botó verd amb un guió per allunyar la imatge; o en les fletxes verdes per a mapes adjacents.


METAR-TAF: